Airport View

Enter AWOS ICAO identifier for current METAR.

ex. KFNL

K4A6 250225Z AUTO 00000KT 10SM BKN055 23/22 A3002 RMK AO2

25 May 2020 02:31

Frequency: 120.125

Phone: (256) 259-1148

Other Area AWOS: K4A9 - KMDQ - KBGF - K8A0

TAF COR KHSV 242357Z 2500/2524 13005KT P6SM FEW060 FEW200 FM250600 13005KT P6SM SCT120 SCT250 FM251500 13009KT P6SM SCT050 BKN150 BKN250 PROB30 2518/2522 4SM TSRA BKN025CB